Arden, Nevada
Current Conditions -  °F | °C
As of 9:56 AM on Thursday 29 Jan 2015 (Local Time) from KLAS Reporting Station
Overcast Overcast  
Wind Chill: 58°   Ceiling: 11000
Heat Index: 58°   Visibility: 10mi
Dew Point: 42°   Wind: 10mph
Humidity: 56%   Direction: 180°S
Pressure: 30.17"   Gusts: NA
Location:  36.079°N, 115.211°W
Report Text: KLAS 291756Z 18009KT 10SM BKN110 OVC150 14/06 A3017 RMK AO2 SLP209 T01440056 10150 20122 52010
Loading
Personal Weather Stations






























Interactive Weather Map New forecast layout! Learn more

10-Day Weather Forecast

Advertisements
Track Severe Weather on mobile